Time;durP1;ratioP1;P1;durP2;ratioP2;P2;SDS_P1;SDS_P2;PMS_P1;PMS_P2;Temp;Humidity;BMP_temperature;BMP_pressure;BME280_temperature;BME280_humidity;BME280_pressure;Samples;Min_cycle;Max_cycle;Signal;HPM_P1;HPM_P2
2023/07/16 00:02:20;;;;;;;3.60;1.65;;;;;;;;;;4924351;28;100165;-78
2023/07/16 00:04:46;;;;;;;4.22;2.13;;;;;;;;;;4933987;28;98169;-80
2023/07/16 00:07:13;;;;;;;6.72;2.50;;;;;;;;;;4933038;28;99112;-78
2023/07/16 00:09:39;;;;;;;6.10;2.13;;;;;;;;;;4924587;28;99008;-78
2023/07/16 00:12:06;;;;;;;6.72;2.33;;;;;;;;;;4917589;28;98270;-78
2023/07/16 00:14:32;;;;;;;4.70;2.25;;;;;;;;;;4913638;28;98984;-77
2023/07/16 00:16:59;;;;;;;4.93;2.28;;;;;;;;;;4913527;28;98198;-79
2023/07/16 00:19:25;;;;;;;6.57;1.85;;;;;;;;;;4922703;28;99569;-78
2023/07/16 00:21:52;;;;;;;5.25;1.80;;;;;;;;;;4933145;28;100238;-78
2023/07/16 00:24:18;;;;;;;2.63;1.50;;;;;;;;;;4928504;28;98413;-78
2023/07/16 00:26:45;;;;;;;6.90;1.88;;;;;;;;;;4924106;28;98689;-77
2023/07/16 00:29:11;;;;;;;9.02;2.67;;;;;;;;;;4915622;28;99861;-80
2023/07/16 00:31:38;;;;;;;6.18;3.03;;;;;;;;;;4932318;28;98253;-77
2023/07/16 00:34:06;;;;;;;5.00;2.40;;;;;;;;;;4936357;28;98270;-79
2023/07/16 00:36:32;;;;;;;7.50;2.00;;;;;;;;;;4933284;28;98195;-78
2023/07/16 00:38:59;;;;;;;6.10;2.78;;;;;;;;;;4932678;28;98183;-78
2023/07/16 00:41:25;;;;;;;8.63;2.67;;;;;;;;;;4933196;28;98950;-78
2023/07/16 00:43:54;;;;;;;3.65;2.20;;;;;;;;;;4931693;28;98336;-78
2023/07/16 00:46:20;;;;;;;8.50;2.08;;;;;;;;;;4947987;28;99870;-78
2023/07/16 00:48:47;;;;;;;4.53;2.50;;;;;;;;;;4933293;28;98836;-77
2023/07/16 00:51:14;;;;;;;3.92;2.53;;;;;;;;;;4946878;28;98293;-79
2023/07/16 00:53:41;;;;;;;5.93;2.25;;;;;;;;;;4919846;28;98515;-78
2023/07/16 00:56:10;;;;;;;6.93;2.05;;;;;;;;;;4916043;28;100048;-79
2023/07/16 00:58:36;;;;;;;9.82;2.83;;;;;;;;;;4929477;28;98253;-78
2023/07/16 01:01:03;;;;;;;3.80;2.28;;;;;;;;;;4920024;28;98995;-77
2023/07/16 01:03:29;;;;;;;5.95;2.65;;;;;;;;;;4912327;28;98262;-78
2023/07/16 01:06:00;;;;;;;6.07;2.28;;;;;;;;;;4912510;28;98441;-79
2023/07/16 01:08:32;;;;;;;3.25;1.65;;;;;;;;;;4913136;28;98785;-78
2023/07/16 01:10:59;;;;;;;7.18;2.75;;;;;;;;;;4913782;28;98001;-79
2023/07/16 01:13:26;;;;;;;4.03;1.85;;;;;;;;;;4927957;28;99565;-79
2023/07/16 01:15:54;;;;;;;6.93;2.65;;;;;;;;;;4932269;28;98852;-79
2023/07/16 01:18:20;;;;;;;3.47;1.98;;;;;;;;;;4928986;28;98183;-77
2023/07/16 01:20:47;;;;;;;4.07;1.92;;;;;;;;;;4929768;28;99043;-79
2023/07/16 01:23:26;;;;;;;6.82;2.33;;;;;;;;;;4920275;28;98186;-79
2023/07/16 01:25:58;;;;;;;7.80;2.47;;;;;;;;;;4930762;28;98482;-79
2023/07/16 01:28:43;;;;;;;6.75;2.58;;;;;;;;;;4946917;28;99015;-80
2023/07/16 01:31:10;;;;;;;3.97;2.60;;;;;;;;;;4933190;28;98529;-78
2023/07/16 01:33:40;;;;;;;4.53;2.25;;;;;;;;;;4931218;28;98323;-78
2023/07/16 01:36:07;;;;;;;11.27;2.50;;;;;;;;;;4912740;28;99829;-79
2023/07/16 01:38:35;;;;;;;7.47;2.67;;;;;;;;;;4912998;28;98122;-78
2023/07/16 01:41:01;;;;;;;5.85;2.58;;;;;;;;;;4925585;28;99101;-78
2023/07/16 01:43:28;;;;;;;3.65;2.42;;;;;;;;;;4932107;28;98222;-78
2023/07/16 01:45:54;;;;;;;8.25;2.80;;;;;;;;;;4931508;28;98541;-79
2023/07/16 01:48:30;;;;;;;8.77;2.88;;;;;;;;;;4931529;28;98956;-77
2023/07/16 01:50:56;;;;;;;5.25;2.40;;;;;;;;;;4930300;28;98307;-79
2023/07/16 01:53:23;;;;;;;9.68;2.92;;;;;;;;;;4936786;28;99446;-79
2023/07/16 01:55:49;;;;;;;6.30;2.55;;;;;;;;;;4915703;28;98877;-79
2023/07/16 01:58:16;;;;;;;7.38;2.53;;;;;;;;;;4911678;28;99031;-79
2023/07/16 02:00:42;;;;;;;5.10;2.45;;;;;;;;;;4911367;28;99645;-78
2023/07/16 02:03:09;;;;;;;5.57;2.38;;;;;;;;;;4913732;28;98698;-79
2023/07/16 02:05:35;;;;;;;8.13;3.08;;;;;;;;;;4920111;28;99332;-79
2023/07/16 02:08:03;;;;;;;5.53;2.33;;;;;;;;;;4927091;28;99985;-78
2023/07/16 02:10:32;;;;;;;5.45;2.90;;;;;;;;;;4910073;28;98251;-79
2023/07/16 02:12:58;;;;;;;3.92;2.78;;;;;;;;;;4912454;28;98275;-77
2023/07/16 02:15:25;;;;;;;8.00;3.28;;;;;;;;;;4926173;28;101668;-78
2023/07/16 02:17:51;;;;;;;8.05;2.45;;;;;;;;;;4912107;28;98239;-78
2023/07/16 02:20:18;;;;;;;15.25;3.40;;;;;;;;;;4911185;28;100343;-78
2023/07/16 02:22:45;;;;;;;6.47;2.92;;;;;;;;;;4930348;28;99995;-77
2023/07/16 02:25:12;;;;;;;7.22;2.42;;;;;;;;;;4927327;28;98148;-78
2023/07/16 02:27:38;;;;;;;11.70;3.63;;;;;;;;;;4912315;28;98697;-79
2023/07/16 02:30:06;;;;;;;6.93;2.55;;;;;;;;;;4910614;28;98251;-79
2023/07/16 02:32:33;;;;;;;5.47;2.55;;;;;;;;;;4928009;28;99254;-78
2023/07/16 02:35:00;;;;;;;9.15;3.28;;;;;;;;;;4929335;28;101488;-79
2023/07/16 02:37:27;;;;;;;6.32;2.58;;;;;;;;;;4928937;28;98070;-80
2023/07/16 02:39:55;;;;;;;7.22;3.30;;;;;;;;;;4930586;28;98495;-78
2023/07/16 02:42:22;;;;;;;10.52;3.13;;;;;;;;;;4930035;28;98649;-79
2023/07/16 02:44:49;;;;;;;8.77;2.90;;;;;;;;;;4932483;28;98399;-79
2023/07/16 02:47:16;;;;;;;8.25;3.30;;;;;;;;;;4929506;28;100143;-79
2023/07/16 02:49:42;;;;;;;10.50;3.10;;;;;;;;;;4931021;28;98065;-79
2023/07/16 02:52:09;;;;;;;7.38;3.22;;;;;;;;;;4929049;28;99796;-78
2023/07/16 02:54:36;;;;;;;6.15;2.83;;;;;;;;;;4926059;28;100156;-77
2023/07/16 02:57:03;;;;;;;9.45;3.50;;;;;;;;;;4922273;28;98592;-77
2023/07/16 02:59:29;;;;;;;14.63;3.88;;;;;;;;;;4922216;28;99487;-78
2023/07/16 03:01:56;;;;;;;3.75;2.78;;;;;;;;;;4910096;28;101415;-79
2023/07/16 03:04:22;;;;;;;8.90;3.22;;;;;;;;;;4909535;28;98426;-78
2023/07/16 03:06:49;;;;;;;7.07;2.97;;;;;;;;;;4914434;28;98475;-78
2023/07/16 03:09:15;;;;;;;10.15;3.65;;;;;;;;;;4910079;28;98390;-78
2023/07/16 03:11:42;;;;;;;8.57;3.30;;;;;;;;;;4910996;28;98401;-77
2023/07/16 03:14:08;;;;;;;8.07;3.35;;;;;;;;;;4938901;28;101663;-78
2023/07/16 03:16:35;;;;;;;6.35;2.63;;;;;;;;;;4930253;28;98308;-77
2023/07/16 03:19:01;;;;;;;10.20;3.28;;;;;;;;;;4930821;28;98584;-79
2023/07/16 03:21:29;;;;;;;5.93;2.75;;;;;;;;;;4931219;28;98803;-78
2023/07/16 03:23:56;;;;;;;8.65;3.00;;;;;;;;;;4943779;28;98207;-79
2023/07/16 03:26:22;;;;;;;6.72;2.75;;;;;;;;;;4928747;28;101021;-78
2023/07/16 03:28:49;;;;;;;5.18;2.95;;;;;;;;;;4934064;28;98744;-79
2023/07/16 03:31:16;;;;;;;10.13;2.92;;;;;;;;;;4954663;28;101140;-78
2023/07/16 03:33:45;;;;;;;7.28;2.70;;;;;;;;;;4919202;28;101992;-79
2023/07/16 03:36:12;;;;;;;4.45;2.75;;;;;;;;;;4911070;28;98273;-79
2023/07/16 03:38:41;;;;;;;7.88;2.85;;;;;;;;;;4920458;28;102183;-79
2023/07/16 03:41:07;;;;;;;5.65;2.95;;;;;;;;;;4914621;28;101754;-78
2023/07/16 03:43:34;;;;;;;10.93;2.63;;;;;;;;;;4945162;28;98381;-79
2023/07/16 03:46:13;;;;;;;6.18;2.75;;;;;;;;;;4928980;28;99688;-79
2023/07/16 03:48:40;;;;;;;8.50;3.17;;;;;;;;;;4944142;28;102143;-78
2023/07/16 03:51:07;;;;;;;7.75;2.90;;;;;;;;;;4919951;28;98324;-78
2023/07/16 03:53:33;;;;;;;10.13;2.58;;;;;;;;;;4931533;28;99184;-78
2023/07/16 03:56:00;;;;;;;9.43;3.90;;;;;;;;;;4915933;28;98253;-78
2023/07/16 03:58:29;;;;;;;7.25;2.65;;;;;;;;;;4925865;28;100571;-77
2023/07/16 04:00:55;;;;;;;6.80;2.50;;;;;;;;;;4910188;28;98676;-79
2023/07/16 04:03:22;;;;;;;10.48;2.80;;;;;;;;;;4909541;28;97971;-78
2023/07/16 04:05:49;;;;;;;7.18;3.67;;;;;;;;;;4929084;28;98281;-79
2023/07/16 04:08:16;;;;;;;4.75;2.30;;;;;;;;;;4914432;28;99044;-79
2023/07/16 04:10:43;;;;;;;7.95;3.20;;;;;;;;;;4913995;28;98306;-80
2023/07/16 04:13:09;;;;;;;8.75;3.03;;;;;;;;;;4910270;28;99378;-78
2023/07/16 04:15:36;;;;;;;3.30;2.97;;;;;;;;;;4921262;28;98059;-78
2023/07/16 04:18:03;;;;;;;5.88;2.88;;;;;;;;;;4930108;28;99395;-78
2023/07/16 04:20:30;;;;;;;5.47;2.88;;;;;;;;;;4930748;28;99885;-77
2023/07/16 04:22:57;;;;;;;4.03;2.47;;;;;;;;;;4929739;28;98376;-78
2023/07/16 04:25:23;;;;;;;6.90;3.45;;;;;;;;;;4915472;28;99286;-79
2023/07/16 04:27:50;;;;;;;8.25;3.35;;;;;;;;;;4910861;28;99055;-78
2023/07/16 04:30:17;;;;;;;3.70;2.55;;;;;;;;;;4909857;28;98294;-79
2023/07/16 04:32:43;;;;;;;7.28;3.10;;;;;;;;;;4913763;28;98538;-79
2023/07/16 04:35:10;;;;;;;13.27;3.15;;;;;;;;;;4912350;28;98382;-79
2023/07/16 04:37:36;;;;;;;10.40;3.55;;;;;;;;;;4920679;28;99329;-79
2023/07/16 04:40:04;;;;;;;8.68;3.58;;;;;;;;;;4933061;28;99869;-79
2023/07/16 04:42:30;;;;;;;9.75;3.38;;;;;;;;;;4932071;28;98277;-79
2023/07/16 04:44:57;;;;;;;7.93;3.58;;;;;;;;;;4932640;28;99486;-80
2023/07/16 04:47:23;;;;;;;17.25;3.50;;;;;;;;;;4932721;28;99007;-78
2023/07/16 04:49:50;;;;;;;8.05;3.53;;;;;;;;;;4932834;28;98220;-78
2023/07/16 04:52:16;;;;;;;5.80;2.92;;;;;;;;;;4932744;28;99871;-78
2023/07/16 04:54:43;;;;;;;6.78;3.20;;;;;;;;;;4936595;28;99985;-79
2023/07/16 04:57:09;;;;;;;10.88;3.25;;;;;;;;;;4912892;28;99760;-78
2023/07/16 04:59:36;;;;;;;7.47;3.28;;;;;;;;;;4928710;28;100153;-79
2023/07/16 05:02:05;;;;;;;8.40;3.22;;;;;;;;;;4912785;28;98281;-79
2023/07/16 05:04:32;;;;;;;6.45;3.47;;;;;;;;;;4912588;28;99584;-79
2023/07/16 05:06:59;;;;;;;5.18;3.67;;;;;;;;;;4913291;28;98894;-80
2023/07/16 05:09:25;;;;;;;4.45;3.45;;;;;;;;;;4913396;28;98255;-79
2023/07/16 05:11:52;;;;;;;8.48;3.05;;;;;;;;;;4925487;28;98947;-78
2023/07/16 05:14:18;;;;;;;5.90;3.28;;;;;;;;;;4938201;28;100241;-79
2023/07/16 05:16:45;;;;;;;4.97;3.45;;;;;;;;;;4935187;28;98253;-75
2023/07/16 05:19:11;;;;;;;5.57;3.00;;;;;;;;;;4931899;28;99111;-75
2023/07/16 05:21:38;;;;;;;7.75;3.05;;;;;;;;;;4932412;28;98187;-75
2023/07/16 05:24:04;;;;;;;5.88;3.15;;;;;;;;;;4932929;28;98789;-73
2023/07/16 05:26:33;;;;;;;6.20;3.17;;;;;;;;;;4929960;28;99077;-74
2023/07/16 05:28:59;;;;;;;7.00;3.97;;;;;;;;;;4932217;28;100194;-75
2023/07/16 05:31:25;;;;;;;7.07;3.75;;;;;;;;;;4932206;28;99236;-76
2023/07/16 05:33:52;;;;;;;4.15;3.30;;;;;;;;;;4913504;28;99967;-75
2023/07/16 05:36:18;;;;;;;7.47;3.80;;;;;;;;;;4918566;28;98134;-76
2023/07/16 05:38:45;;;;;;;6.97;3.38;;;;;;;;;;4935662;28;98580;-74
2023/07/16 05:41:11;;;;;;;7.45;3.83;;;;;;;;;;4930534;28;98422;-75
2023/07/16 05:43:38;;;;;;;3.80;2.97;;;;;;;;;;4928205;28;98828;-75
2023/07/16 05:46:05;;;;;;;3.72;3.20;;;;;;;;;;4916220;28;99008;-74
2023/07/16 05:48:31;;;;;;;3.45;2.72;;;;;;;;;;4931329;28;98306;-75
2023/07/16 05:50:58;;;;;;;8.20;3.88;;;;;;;;;;4911948;28;99532;-74
2023/07/16 05:53:24;;;;;;;6.22;3.40;;;;;;;;;;4916922;28;98918;-76
2023/07/16 05:55:52;;;;;;;11.50;3.95;;;;;;;;;;4927095;28;98270;-75
2023/07/16 05:58:18;;;;;;;5.78;3.72;;;;;;;;;;4910870;28;98555;-76
2023/07/16 06:00:45;;;;;;;10.52;4.10;;;;;;;;;;4915348;28;99849;-75
2023/07/16 06:03:11;;;;;;;9.90;3.92;;;;;;;;;;4917901;28;99283;-75
2023/07/16 06:05:38;;;;;;;9.95;3.60;;;;;;;;;;4931772;28;98559;-78
2023/07/16 06:08:04;;;;;;;8.32;3.90;;;;;;;;;;4912676;28;98502;-76
2023/07/16 06:10:33;;;;;;;6.43;3.70;;;;;;;;;;4912340;28;98694;-76
2023/07/16 06:12:59;;;;;;;6.70;3.35;;;;;;;;;;4912615;28;99086;-78
2023/07/16 06:15:26;;;;;;;4.38;2.97;;;;;;;;;;4920502;28;98460;-76
2023/07/16 06:17:52;;;;;;;7.05;3.88;;;;;;;;;;4931462;28;99504;-77
2023/07/16 06:20:19;;;;;;;5.18;3.63;;;;;;;;;;4934754;28;100495;-77
2023/07/16 06:22:45;;;;;;;6.88;3.70;;;;;;;;;;4929689;28;99404;-77
2023/07/16 06:25:12;;;;;;;7.45;3.65;;;;;;;;;;4912421;28;100184;-77
2023/07/16 06:27:39;;;;;;;6.75;3.35;;;;;;;;;;4912607;28;98289;-77
2023/07/16 06:30:06;;;;;;;12.68;3.97;;;;;;;;;;4920746;28;99625;-77
2023/07/16 06:32:32;;;;;;;7.32;4.38;;;;;;;;;;4931225;28;99766;-77
2023/07/16 06:34:59;;;;;;;6.22;3.47;;;;;;;;;;4931461;28;98275;-77
2023/07/16 06:37:26;;;;;;;6.28;3.15;;;;;;;;;;4930965;28;99479;-78
2023/07/16 06:39:52;;;;;;;6.60;3.20;;;;;;;;;;4928304;28;98972;-78
2023/07/16 06:42:18;;;;;;;7.40;3.00;;;;;;;;;;4915031;28;98211;-78
2023/07/16 06:44:47;;;;;;;6.18;3.17;;;;;;;;;;4910290;28;99566;-76
2023/07/16 06:47:14;;;;;;;6.95;3.35;;;;;;;;;;4912254;28;98301;-76
2023/07/16 06:49:40;;;;;;;7.05;3.30;;;;;;;;;;4911194;28;99433;-78
2023/07/16 06:52:08;;;;;;;5.72;2.90;;;;;;;;;;4911416;28;98940;-75
2023/07/16 06:54:34;;;;;;;6.72;3.55;;;;;;;;;;4919976;28;98258;-77
2023/07/16 06:57:01;;;;;;;5.85;3.53;;;;;;;;;;4927540;28;98600;-78
2023/07/16 06:59:27;;;;;;;5.57;3.20;;;;;;;;;;4911536;28;98999;-78
2023/07/16 07:01:54;;;;;;;6.38;3.33;;;;;;;;;;4911760;28;98197;-76
2023/07/16 07:04:20;;;;;;;6.72;3.35;;;;;;;;;;4913376;28;99471;-76
2023/07/16 07:06:47;;;;;;;6.03;3.42;;;;;;;;;;4928890;28;98227;-77
2023/07/16 07:09:13;;;;;;;5.15;3.47;;;;;;;;;;4930915;28;99678;-77
2023/07/16 07:11:40;;;;;;;9.05;3.67;;;;;;;;;;4930559;28;100129;-76
2023/07/16 07:14:06;;;;;;;6.75;3.33;;;;;;;;;;4926912;28;98233;-77
2023/07/16 07:16:36;;;;;;;12.93;4.35;;;;;;;;;;4911875;28;100051;-77
2023/07/16 07:19:02;;;;;;;11.20;4.43;;;;;;;;;;4920101;28;98164;-77
2023/07/16 07:21:29;;;;;;;5.97;3.50;;;;;;;;;;4930675;28;98227;-77
2023/07/16 07:23:55;;;;;;;7.78;3.95;;;;;;;;;;4930964;28;99574;-77
2023/07/16 07:26:22;;;;;;;4.43;3.10;;;;;;;;;;4928610;28;99950;-77
2023/07/16 07:28:48;;;;;;;16.75;3.30;;;;;;;;;;4929230;28;98782;-77
2023/07/16 07:31:15;;;;;;;9.10;3.13;;;;;;;;;;4925436;28;98942;-76
2023/07/16 07:33:41;;;;;;;5.28;3.38;;;;;;;;;;4910737;28;98668;-77
2023/07/16 07:36:07;;;;;;;6.72;3.42;;;;;;;;;;4930084;28;99829;-76
2023/07/16 07:38:34;;;;;;;5.10;3.38;;;;;;;;;;4926393;28;98940;-78
2023/07/16 07:41:01;;;;;;;4.78;3.03;;;;;;;;;;4928634;28;98793;-74
2023/07/16 07:43:27;;;;;;;8.07;3.97;;;;;;;;;;4927164;28;99918;-76
2023/07/16 07:45:53;;;;;;;6.60;3.20;;;;;;;;;;4923359;28;99269;-77
2023/07/16 07:48:21;;;;;;;8.73;3.15;;;;;;;;;;4931936;28;98394;-78
2023/07/16 07:50:48;;;;;;;4.95;3.30;;;;;;;;;;4920313;28;99458;-77
2023/07/16 07:53:18;;;;;;;7.15;3.88;;;;;;;;;;4914402;28;98709;-78
2023/07/16 07:55:45;;;;;;;7.28;3.80;;;;;;;;;;4910229;28;98664;-75
2023/07/16 07:58:11;;;;;;;7.70;3.65;;;;;;;;;;4914316;28;100099;-76
2023/07/16 08:00:38;;;;;;;5.57;3.80;;;;;;;;;;4924730;28;98557;-77
2023/07/16 08:03:05;;;;;;;8.23;4.28;;;;;;;;;;4914037;28;98764;-77
2023/07/16 08:05:33;;;;;;;6.78;3.80;;;;;;;;;;4910174;28;99154;-77
2023/07/16 08:07:59;;;;;;;15.68;4.18;;;;;;;;;;4926831;28;98112;-79
2023/07/16 08:10:26;;;;;;;10.88;4.13;;;;;;;;;;4935595;28;98425;-78
2023/07/16 08:12:52;;;;;;;6.13;3.60;;;;;;;;;;4920913;28;98401;-77
2023/07/16 08:15:19;;;;;;;7.30;3.47;;;;;;;;;;4928493;28;99564;-77
2023/07/16 08:17:45;;;;;;;6.85;3.25;;;;;;;;;;4931369;28;99187;-77
2023/07/16 08:20:12;;;;;;;9.57;4.13;;;;;;;;;;4943180;28;97852;-77
2023/07/16 08:22:39;;;;;;;8.55;3.60;;;;;;;;;;4933132;28;98762;-77
2023/07/16 08:25:06;;;;;;;4.82;3.67;;;;;;;;;;4920481;28;99921;-76
2023/07/16 08:27:32;;;;;;;11.75;3.85;;;;;;;;;;4931175;28;98641;-80
2023/07/16 08:29:59;;;;;;;4.50;3.20;;;;;;;;;;4931295;28;99927;-77
2023/07/16 08:32:25;;;;;;;8.80;3.63;;;;;;;;;;4922271;28;99468;-79
2023/07/16 08:34:52;;;;;;;8.48;3.40;;;;;;;;;;4928450;28;99412;-77
2023/07/16 08:37:18;;;;;;;8.82;3.95;;;;;;;;;;4928512;28;100153;-78
2023/07/16 08:39:45;;;;;;;6.07;3.13;;;;;;;;;;4930589;28;98215;-79
2023/07/16 08:42:12;;;;;;;6.38;3.80;;;;;;;;;;4913226;28;98564;-77
2023/07/16 08:44:39;;;;;;;8.48;3.42;;;;;;;;;;4924934;28;99981;-80
2023/07/16 08:47:05;;;;;;;9.63;5.15;;;;;;;;;;4926466;28;98339;-80
2023/07/16 08:49:33;;;;;;;6.85;3.95;;;;;;;;;;4927006;28;99759;-79
2023/07/16 08:52:01;;;;;;;7.97;3.85;;;;;;;;;;4933828;28;99997;-80
2023/07/16 08:54:27;;;;;;;6.45;4.35;;;;;;;;;;4931758;28;99885;-78
2023/07/16 08:56:54;;;;;;;6.38;3.88;;;;;;;;;;4920263;28;99946;-77
2023/07/16 08:59:20;;;;;;;5.88;3.22;;;;;;;;;;4923111;28;99766;-77
2023/07/16 09:01:47;;;;;;;11.13;4.10;;;;;;;;;;4927511;28;99568;-78
2023/07/16 09:04:15;;;;;;;11.05;3.75;;;;;;;;;;4929030;28;100330;-79
2023/07/16 09:06:41;;;;;;;8.73;3.90;;;;;;;;;;4931617;28;98234;-78
2023/07/16 09:09:08;;;;;;;5.80;3.97;;;;;;;;;;4932960;28;99456;-79
2023/07/16 09:11:34;;;;;;;5.05;3.00;;;;;;;;;;4931666;28;99762;-78
2023/07/16 09:14:02;;;;;;;4.72;3.92;;;;;;;;;;4935839;28;99669;-79
2023/07/16 09:16:32;;;;;;;6.70;3.67;;;;;;;;;;4937385;28;99047;-79
2023/07/16 09:19:05;;;;;;;8.00;3.45;;;;;;;;;;4934333;28;98398;-80
2023/07/16 09:21:34;;;;;;;5.80;3.53;;;;;;;;;;4934021;28;98428;-79
2023/07/16 09:24:05;;;;;;;6.50;3.90;;;;;;;;;;4935368;28;99216;-79
2023/07/16 09:26:31;;;;;;;5.28;3.70;;;;;;;;;;4933199;28;98386;-79
2023/07/16 09:28:58;;;;;;;6.45;3.58;;;;;;;;;;4919546;28;99843;-78
2023/07/16 09:31:24;;;;;;;5.00;4.18;;;;;;;;;;4930748;28;99098;-79
2023/07/16 09:33:51;;;;;;;9.60;4.30;;;;;;;;;;4932538;28;98264;-79
2023/07/16 09:36:26;;;;;;;8.07;3.50;;;;;;;;;;4934944;28;98659;-79
2023/07/16 09:38:57;;;;;;;11.77;5.57;;;;;;;;;;4932026;28;98127;-80
2023/07/16 09:41:24;;;;;;;11.10;3.72;;;;;;;;;;4932783;28;99918;-79
2023/07/16 09:43:50;;;;;;;4.97;3.38;;;;;;;;;;4931795;28;100026;-80
2023/07/16 09:46:17;;;;;;;10.57;3.30;;;;;;;;;;4923261;28;99466;-77
2023/07/16 09:48:44;;;;;;;6.72;3.58;;;;;;;;;;4923486;28;98768;-79
2023/07/16 09:51:12;;;;;;;9.30;4.20;;;;;;;;;;4932148;28;99873;-79
2023/07/16 09:53:41;;;;;;;6.40;3.50;;;;;;;;;;4914048;28;98397;-78
2023/07/16 09:56:09;;;;;;;9.32;4.15;;;;;;;;;;4911928;28;99801;-78
2023/07/16 09:58:36;;;;;;;11.95;3.72;;;;;;;;;;4918939;28;100951;-78
2023/07/16 10:01:03;;;;;;;5.03;3.55;;;;;;;;;;4911951;28;99539;-78
2023/07/16 10:03:30;;;;;;;9.52;3.15;;;;;;;;;;4912168;28;100007;-78
2023/07/16 10:06:14;;;;;;;13.60;4.57;;;;;;;;;;4929876;28;98509;-78
2023/07/16 10:08:48;;;;;;;4.40;3.75;;;;;;;;;;4931618;28;98794;-78
2023/07/16 10:11:18;;;;;;;6.80;3.38;;;;;;;;;;4931245;28;99809;-78
2023/07/16 10:13:51;;;;;;;14.23;3.83;;;;;;;;;;4930796;28;98542;-78
2023/07/16 10:16:24;;;;;;;6.13;3.28;;;;;;;;;;4931326;28;99304;-78
2023/07/16 10:18:53;;;;;;;5.10;3.17;;;;;;;;;;4931621;28;100139;-78
2023/07/16 10:21:23;;;;;;;6.50;3.95;;;;;;;;;;4933206;28;98491;-78
2023/07/16 10:23:56;;;;;;;8.18;3.50;;;;;;;;;;4931248;28;99618;-78
2023/07/16 10:26:26;;;;;;;5.15;3.30;;;;;;;;;;4923764;28;98261;-78
2023/07/16 10:28:52;;;;;;;5.75;3.10;;;;;;;;;;4911447;28;98889;-78
2023/07/16 10:31:23;;;;;;;4.18;3.22;;;;;;;;;;4912037;28;98986;-78
2023/07/16 10:34:00;;;;;;;4.65;2.83;;;;;;;;;;4915400;28;98082;-79
2023/07/16 10:36:26;;;;;;;6.05;3.30;;;;;;;;;;4911080;28;99371;-79
2023/07/16 10:38:53;;;;;;;10.55;3.85;;;;;;;;;;4912819;28;98876;-78
2023/07/16 10:41:20;;;;;;;5.93;3.08;;;;;;;;;;4924008;28;98274;-78
2023/07/16 10:43:46;;;;;;;5.22;3.38;;;;;;;;;;4929394;28;100132;-78
2023/07/16 10:46:13;;;;;;;8.02;3.30;;;;;;;;;;4930234;28;98284;-78
2023/07/16 10:48:45;;;;;;;8.57;3.20;;;;;;;;;;4930855;28;99720;-78
2023/07/16 10:51:13;;;;;;;8.88;3.55;;;;;;;;;;4931244;28;98991;-78
2023/07/16 10:53:43;;;;;;;8.48;3.28;;;;;;;;;;4931223;28;98278;-79
2023/07/16 10:56:10;;;;;;;3.53;3.22;;;;;;;;;;4917187;28;98870;-78
2023/07/16 10:58:37;;;;;;;6.55;3.63;;;;;;;;;;4911601;28;99908;-77
2023/07/16 11:01:03;;;;;;;7.78;3.50;;;;;;;;;;4911893;28;98229;-77
2023/07/16 11:03:30;;;;;;;7.40;3.38;;;;;;;;;;4914206;28;99521;-79
2023/07/16 11:05:57;;;;;;;6.63;3.15;;;;;;;;;;4911284;28;98244;-79
2023/07/16 11:08:26;;;;;;;7.15;2.75;;;;;;;;;;4911564;28;99947;-78
2023/07/16 11:10:54;;;;;;;5.43;2.70;;;;;;;;;;4909996;28;99752;-78
2023/07/16 11:13:24;;;;;;;4.30;2.72;;;;;;;;;;4922430;28;98284;-78
2023/07/16 11:15:51;;;;;;;6.63;3.20;;;;;;;;;;4931022;28;99583;-78
2023/07/16 11:18:18;;;;;;;4.43;2.60;;;;;;;;;;4929578;28;100273;-78
2023/07/16 11:20:44;;;;;;;5.22;2.47;;;;;;;;;;4930735;28;98291;-79
2023/07/16 11:23:11;;;;;;;3.65;2.83;;;;;;;;;;4915863;28;99314;-79
2023/07/16 11:25:37;;;;;;;6.30;2.85;;;;;;;;;;4931997;28;100002;-78
2023/07/16 11:28:04;;;;;;;9.02;2.85;;;;;;;;;;4925222;28;99593;-80
2023/07/16 11:30:30;;;;;;;6.22;3.17;;;;;;;;;;4910741;28;100004;-79
2023/07/16 11:32:58;;;;;;;4.80;2.42;;;;;;;;;;4920839;28;98226;-79
2023/07/16 11:35:25;;;;;;;2.92;2.58;;;;;;;;;;4929145;28;100083;-79
2023/07/16 11:37:52;;;;;;;4.03;2.70;;;;;;;;;;4929662;28;100149;-80
2023/07/16 11:40:19;;;;;;;4.78;2.35;;;;;;;;;;4930302;28;98292;-80
2023/07/16 11:42:46;;;;;;;16.95;2.80;;;;;;;;;;4930912;28;99586;-81
2023/07/16 11:45:26;;;;;;;8.73;2.63;;;;;;;;;;4928292;28;99881;-79
2023/07/16 11:47:54;;;;;;;3.40;2.27;;;;;;;;;;4933857;28;98308;-77
2023/07/16 11:50:22;;;;;;;2.78;2.53;;;;;;;;;;4931591;28;99313;-78
2023/07/16 11:52:59;;;;;;;10.73;2.22;;;;;;;;;;4930362;28;98270;-79
2023/07/16 11:55:26;;;;;;;7.30;2.42;;;;;;;;;;4930887;28;100276;-76
2023/07/16 11:57:53;;;;;;;4.93;2.22;;;;;;;;;;4927070;28;99924;-77
2023/07/16 12:00:21;;;;;;;6.53;2.05;;;;;;;;;;4916055;28;98821;-78
2023/07/16 12:02:51;;;;;;;9.50;2.80;;;;;;;;;;4921527;28;99565;-77
2023/07/16 12:05:19;;;;;;;8.35;2.58;;;;;;;;;;4912599;28;99360;-77
2023/07/16 12:08:13;;;;;;;7.45;1.88;;;;;;;;;;4911739;28;98126;-77
2023/07/16 12:10:41;;;;;;;4.60;1.80;;;;;;;;;;4895784;28;99461;-77
2023/07/16 12:13:11;;;;;;;8.13;1.83;;;;;;;;;;4930998;28;98378;-79
2023/07/16 12:15:40;;;;;;;4.95;1.50;;;;;;;;;;4930016;28;100057;-78
2023/07/16 12:18:07;;;;;;;7.88;1.33;;;;;;;;;;4929644;28;98968;-78
2023/07/16 12:20:36;;;;;;;4.28;1.00;;;;;;;;;;4928899;28;98408;-78
2023/07/16 12:23:04;;;;;;;5.35;1.65;;;;;;;;;;4930422;28;98605;-79
2023/07/16 12:25:32;;;;;;;7.07;1.52;;;;;;;;;;4928332;28;100285;-77
2023/07/16 12:28:01;;;;;;;4.45;1.35;;;;;;;;;;4929439;28;98148;-79
2023/07/16 12:30:28;;;;;;;3.58;1.45;;;;;;;;;;4929526;28;99544;-80
2023/07/16 12:32:55;;;;;;;3.92;1.33;;;;;;;;;;4932162;28;98278;-77
2023/07/16 12:35:23;;;;;;;3.80;1.40;;;;;;;;;;4929078;28;98532;-77
2023/07/16 12:37:52;;;;;;;7.10;1.67;;;;;;;;;;4929879;28;100002;-77
2023/07/16 12:40:19;;;;;;;3.72;1.50;;;;;;;;;;4919379;28;98257;-77
2023/07/16 12:42:47;;;;;;;1.95;1.35;;;;;;;;;;4911045;28;98958;-77
2023/07/16 12:45:13;;;;;;;5.47;1.60;;;;;;;;;;4910510;28;99871;-78
2023/07/16 12:47:41;;;;;;;2.35;1.67;;;;;;;;;;4911101;28;98262;-77
2023/07/16 12:50:08;;;;;;;2.97;1.90;;;;;;;;;;4909364;28;99753;-78
2023/07/16 12:52:36;;;;;;;3.15;1.45;;;;;;;;;;4913300;28;100154;-77
2023/07/16 12:55:03;;;;;;;6.65;2.85;;;;;;;;;;4911370;28;99409;-79
2023/07/16 12:57:33;;;;;;;4.97;1.58;;;;;;;;;;4912868;28;99873;-77
2023/07/16 13:00:01;;;;;;;2.28;1.40;;;;;;;;;;4914178;28;98099;-77
2023/07/16 13:02:29;;;;;;;6.07;1.92;;;;;;;;;;4929770;28;100141;-77
2023/07/16 13:04:56;;;;;;;3.20;1.45;;;;;;;;;;4933206;28;99446;-78
2023/07/16 13:07:25;;;;;;;6.65;2.55;;;;;;;;;;4932319;28;98267;-78
2023/07/16 13:09:54;;;;;;;5.65;1.65;;;;;;;;;;4931383;28;98561;-78
2023/07/16 13:12:42;;;;;;;5.60;1.50;;;;;;;;;;4917354;28;99118;-77
2023/07/16 13:15:12;;;;;;;2.80;1.45;;;;;;;;;;4917174;28;98598;-78
2023/07/16 13:17:48;;;;;;;6.07;1.42;;;;;;;;;;4912734;28;99162;-76
2023/07/16 13:20:17;;;;;;;3.42;1.15;;;;;;;;;;4913309;28;99125;-77
2023/07/16 13:22:48;;;;;;;8.45;1.40;;;;;;;;;;4914457;28;97960;-78
2023/07/16 13:25:16;;;;;;;6.88;1.40;;;;;;;;;;4912156;28;100317;-77
2023/07/16 13:27:46;;;;;;;1.95;1.40;;;;;;;;;;4913615;28;98254;-78
2023/07/16 13:30:13;;;;;;;5.45;1.35;;;;;;;;;;4912929;28;99281;-80
2023/07/16 13:32:40;;;;;;;5.22;1.10;;;;;;;;;;4919744;28;98991;-79
2023/07/16 13:35:08;;;;;;;4.82;1.10;;;;;;;;;;4931894;28;98154;-80
2023/07/16 13:37:34;;;;;;;3.22;1.60;;;;;;;;;;4933260;28;99414;-77
2023/07/16 13:40:05;;;;;;;2.63;1.40;;;;;;;;;;4931312;28;98389;-77
2023/07/16 13:42:31;;;;;;;3.25;1.67;;;;;;;;;;4947313;28;99547;-77
2023/07/16 13:44:59;;;;;;;3.70;1.30;;;;;;;;;;4931652;28;99181;-78
2023/07/16 13:47:27;;;;;;;2.75;1.50;;;;;;;;;;4932504;28;98714;-78
2023/07/16 13:50:00;;;;;;;7.38;2.00;;;;;;;;;;4933659;28;98804;-77
2023/07/16 13:52:27;;;;;;;3.90;1.27;;;;;;;;;;4940948;28;99443;-80
2023/07/16 13:54:56;;;;;;;3.08;1.13;;;;;;;;;;4931487;28;98254;-79
2023/07/16 13:57:23;;;;;;;6.00;2.30;;;;;;;;;;4932227;28;99030;-76
2023/07/16 13:59:50;;;;;;;3.72;1.35;;;;;;;;;;4925417;28;99119;-80
2023/07/16 14:02:18;;;;;;;3.08;1.25;;;;;;;;;;4915917;28;98963;-79
2023/07/16 14:04:45;;;;;;;2.55;1.27;;;;;;;;;;4931179;28;100515;-78
2023/07/16 14:07:12;;;;;;;2.67;1.20;;;;;;;;;;4927065;28;98360;-78
2023/07/16 14:09:38;;;;;;;4.32;1.60;;;;;;;;;;4931791;28;99479;-78
2023/07/16 14:12:05;;;;;;;1.65;1.38;;;;;;;;;;4931440;28;99464;-78
2023/07/16 14:14:31;;;;;;;2.70;0.93;;;;;;;;;;4930924;28;98284;-80
2023/07/16 14:16:58;;;;;;;4.10;1.05;;;;;;;;;;4931714;28;98490;-79
2023/07/16 14:19:24;;;;;;;6.35;1.27;;;;;;;;;;4931184;28;99916;-79
2023/07/16 14:21:51;;;;;;;3.88;0.93;;;;;;;;;;4934634;28;98186;-79
2023/07/16 14:24:17;;;;;;;3.72;1.10;;;;;;;;;;4931288;28;99863;-79
2023/07/16 14:26:44;;;;;;;2.63;1.33;;;;;;;;;;4930745;28;98191;-79
2023/07/16 14:29:11;;;;;;;3.72;1.70;;;;;;;;;;4930688;28;99373;-79
2023/07/16 14:31:37;;;;;;;4.55;1.77;;;;;;;;;;4931235;28;99343;-79
2023/07/16 14:34:04;;;;;;;6.88;1.50;;;;;;;;;;4930590;28;98348;-80
2023/07/16 14:36:30;;;;;;;1.70;1.10;;;;;;;;;;4931234;28;98683;-79
2023/07/16 14:38:57;;;;;;;4.78;2.38;;;;;;;;;;4930797;28;99602;-79
2023/07/16 14:41:24;;;;;;;5.40;1.80;;;;;;;;;;4927489;28;98328;-80
2023/07/16 14:43:50;;;;;;;2.40;1.27;;;;;;;;;;4931229;28;100136;-79